Mc Mechen, West Virginia
Current Conditions -  °F | °C
As of 2:53 PM on Monday 22 Dec 2014 (Local Time) from KHLG Reporting Station
Clear Clear  
Wind Chill: 51°   Ceiling: Unl
Heat Index: 51°   Visibility: 10mi
Dew Point: 32°   Wind: 9mph
Humidity: 48%   Direction: 130°SE
Pressure: 29.96"   Gusts: NA
Location:  39.9878°N, 80.7308°W
Report Text: KHLG 221953Z 13008KT 10SM CLR 11/00 A2996 RMK AO2 SLP154 T01060000
Loading
Personal Weather Stations






























Interactive Weather Map New forecast layout! Learn more

10-Day Weather Forecast

Advertisements
Track Severe Weather on mobile